createdAt,value
2022-09-09T00:00:19.738Z,99950.59
2022-09-09T00:03:14.483Z,99955.16
2022-09-09T00:06:09.230Z,99950.59
2022-09-09T00:09:05.210Z,99958.41
2022-09-09T00:11:57.321Z,99953.88
2022-09-09T00:14:50.884Z,99951.81
2022-09-09T00:17:41.919Z,99947.25
2022-09-09T00:20:32.935Z,99951.13
2022-09-09T00:23:26.957Z,99956.28
2022-09-09T00:26:21.852Z,99953.59
2022-09-09T00:29:18.347Z,99940.22
2022-09-09T00:32:15.058Z,99938.13
2022-09-09T00:35:07.371Z,99941.06
2022-09-09T00:37:58.544Z,99943.50
2022-09-09T00:40:53.322Z,99942.44
2022-09-09T00:43:43.848Z,99944.31
2022-09-09T00:47:13.533Z,99950.28
2022-09-09T00:50:03.464Z,99955.41
2022-09-09T00:52:57.243Z,99947.97
2022-09-09T00:55:51.279Z,99945.88
2022-09-09T00:58:39.828Z,99956.59
2022-09-09T01:01:29.698Z,99949.63
2022-09-09T01:04:23.610Z,99947.97
2022-09-09T01:07:18.671Z,99959.50
2022-09-09T01:10:13.126Z,99956.22
2022-09-09T01:13:03.984Z,99958.69
2022-09-09T01:15:57.237Z,99954.13
2022-09-09T01:18:52.202Z,99956.00
2022-09-09T01:21:45.626Z,99957.06
2022-09-09T01:24:41.472Z,99962.41
2022-09-09T01:27:31.305Z,99962.03
2022-09-09T01:30:20.951Z,99955.81
2022-09-09T01:33:12.905Z,99950.47
2022-09-09T01:36:02.528Z,99949.88
2022-09-09T01:38:51.028Z,99956.44
2022-09-09T01:41:39.950Z,99957.47
2022-09-09T01:44:30.149Z,99955.81
2022-09-09T01:47:18.977Z,99941.84
2022-09-09T01:50:08.867Z,99943.94
2022-09-09T01:53:00.792Z,99939.63
2022-09-09T01:55:57.788Z,99949.28
2022-09-09T01:58:54.772Z,99941.84
2022-09-09T02:01:55.798Z,99936.06
2022-09-09T02:04:47.638Z,99932.31
2022-09-09T02:07:41.093Z,99930.69
2022-09-09T02:10:33.770Z,99943.03
2022-09-09T02:13:24.604Z,99927.34
2022-09-09T02:16:16.224Z,99941.78
2022-09-09T02:19:10.469Z,99940.16
2022-09-09T02:22:00.989Z,99940.34
2022-09-09T02:24:51.151Z,99940.34
2022-09-09T02:27:40.127Z,99944.72
2022-09-09T02:30:30.393Z,99941.78
2022-09-09T02:33:18.961Z,99943.66
2022-09-09T02:36:10.390Z,99943.88
2022-09-09T02:38:58.930Z,99945.50
2022-09-09T02:41:48.325Z,99946.34
2022-09-09T02:44:38.082Z,99947.97
2022-09-09T02:47:32.982Z,99944.25
2022-09-09T02:50:25.846Z,99949.81
2022-09-09T02:53:22.136Z,99943.03
2022-09-09T02:56:12.773Z,99951.06
2022-09-09T02:59:01.240Z,99938.31
2022-09-09T03:01:49.883Z,99942.44
2022-09-09T03:04:38.334Z,99945.13
2022-09-09T03:07:28.419Z,99945.72
2022-09-09T03:10:18.379Z,99950.06
2022-09-09T03:13:07.300Z,99950.66
2022-09-09T03:15:55.729Z,99950.88
2022-09-09T03:18:46.627Z,99952.50
2022-09-09T03:21:35.103Z,99952.50
2022-09-09T03:24:23.714Z,99952.88
2022-09-09T03:27:15.149Z,99955.41
2022-09-09T03:30:04.725Z,99946.75
2022-09-09T03:32:53.276Z,99949.28
2022-09-09T03:35:42.300Z,99941.72
2022-09-09T03:38:36.061Z,99949.56
2022-09-09T03:41:25.019Z,99946.88
2022-09-09T03:44:14.773Z,99941.53
2022-09-09T03:47:03.250Z,99940.06
2022-09-09T03:49:51.963Z,99950.78
2022-09-09T03:52:41.736Z,99948.09
2022-09-09T03:55:30.198Z,99943.34
2022-09-09T03:58:22.350Z,99951.38
2022-09-09T04:01:15.048Z,99951.19
2022-09-09T04:04:05.195Z,99952.22
2022-09-09T04:06:53.736Z,99948.09
2022-09-09T04:09:42.319Z,99956.72
2022-09-09T04:12:31.788Z,99954.03
2022-09-09T04:15:20.243Z,99960.00
2022-09-09T04:18:10.106Z,99961.63
2022-09-09T04:20:59.129Z,99965.34
2022-09-09T04:23:50.097Z,99966.97
2022-09-09T04:26:39.109Z,99963.28
2022-09-09T04:29:27.587Z,99957.91
2022-09-09T04:32:16.091Z,99960.59
2022-09-09T04:35:06.564Z,99958.81
2022-09-09T04:37:55.040Z,99965.78
2022-09-09T04:40:44.874Z,99952.22
2022-09-09T04:43:33.348Z,99959.22
2022-09-09T04:46:25.258Z,99968.28
2022-09-09T04:49:15.353Z,99977.38
2022-09-09T04:52:05.503Z,99968.28
2022-09-09T04:54:55.683Z,99964.56
2022-09-09T04:57:44.173Z,99962.94
2022-09-09T05:00:32.631Z,99957.59
2022-09-09T05:03:21.607Z,99961.31
2022-09-09T05:06:11.825Z,99962.94
2022-09-09T05:09:01.745Z,99972.84
2022-09-09T05:11:50.196Z,99966.66
2022-09-09T05:14:38.726Z,99973.66
2022-09-09T05:17:27.197Z,99963.38
2022-09-09T05:20:17.535Z,99961.75
2022-09-09T05:23:06.471Z,99969.56
2022-09-09T05:26:00.360Z,99968.75
2022-09-09T05:28:49.231Z,99970.81
2022-09-09T05:31:37.889Z,99978.59
2022-09-09T05:34:26.326Z,99982.31
2022-09-09T05:37:14.767Z,99989.56
2022-09-09T05:40:04.100Z,99983.59
2022-09-09T05:42:54.513Z,99995.56
2022-09-09T05:45:43.492Z,99994.72
2022-09-09T05:48:33.022Z,99994.13
2022-09-09T05:51:23.368Z,99993.69
2022-09-09T05:54:11.857Z,99997.63
2022-09-09T05:57:00.276Z,100004.22
2022-09-09T05:59:50.724Z,100000.94
2022-09-09T06:02:40.050Z,100001.81
2022-09-09T06:05:30.587Z,100001.00
2022-09-09T06:08:19.140Z,100000.16
2022-09-09T06:11:09.038Z,100002.84
2022-09-09T06:13:57.484Z,99996.91
2022-09-09T06:16:47.537Z,100004.47
2022-09-09T06:19:36.006Z,100000.56
2022-09-09T06:22:24.563Z,100002.59
2022-09-09T06:25:13.476Z,100007.50
2022-09-09T06:28:03.302Z,100011.22
2022-09-09T06:31:00.585Z,100005.66
2022-09-09T06:33:51.800Z,100011.41
2022-09-09T06:36:41.186Z,100003.78
2022-09-09T06:39:29.877Z,100003.78
2022-09-09T06:42:18.774Z,100004.22
2022-09-09T06:45:08.161Z,100008.34
2022-09-09T06:47:58.566Z,100004.63
2022-09-09T06:50:50.727Z,100002.16
2022-09-09T06:53:40.243Z,100003.78
2022-09-09T06:56:30.383Z,100003.19
2022-09-09T06:59:18.794Z,99994.72
2022-09-09T07:02:07.293Z,100000.06
2022-09-09T07:04:55.799Z,99999.28
2022-09-09T07:07:45.920Z,100001.13
2022-09-09T07:10:35.252Z,99997.63
2022-09-09T07:13:26.928Z,100000.50
2022-09-09T07:16:17.275Z,99999.28
2022-09-09T07:19:06.275Z,99990.41
2022-09-09T07:21:54.757Z,99998.44
2022-09-09T07:24:46.045Z,99998.44
2022-09-09T07:27:34.520Z,100000.06
2022-09-09T07:30:27.561Z,100000.47
2022-09-09T07:33:16.464Z,99996.34
2022-09-09T07:36:08.056Z,99999.88
2022-09-09T07:38:58.674Z,100001.28
2022-09-09T07:41:50.273Z,99995.50
2022-09-09T07:44:40.531Z,100006.22
2022-09-09T07:47:29.011Z,100003.91
2022-09-09T07:50:17.425Z,100001.63
2022-09-09T07:53:07.413Z,99997.91
2022-09-09T07:55:56.812Z,100007.13
2022-09-09T07:58:48.907Z,100004.47
2022-09-09T08:01:41.181Z,100016.59
2022-09-09T08:04:30.418Z,100017.59
2022-09-09T08:07:18.836Z,100013.03
2022-09-09T08:10:08.275Z,100015.31
2022-09-09T08:13:16.685Z,100016.34
2022-09-09T08:16:12.494Z,100012.63
2022-09-09T08:19:01.226Z,100021.72
2022-09-09T08:21:49.976Z,100017.19
2022-09-09T08:24:38.534Z,100009.16
2022-09-09T08:27:27.425Z,100012.63
2022-09-09T08:30:16.049Z,100021.31
2022-09-09T08:33:06.342Z,100024.56
2022-09-09T08:35:54.793Z,100023.53
2022-09-09T08:38:43.481Z,100023.53
2022-09-09T08:41:44.293Z,100031.13
2022-09-09T08:44:45.589Z,100025.75
2022-09-09T08:47:42.384Z,100028.25
2022-09-09T08:50:34.871Z,100028.63
2022-09-09T08:53:26.750Z,100037.06
2022-09-09T08:56:17.110Z,100020.19
2022-09-09T08:59:06.131Z,100029.03
2022-09-09T09:02:03.762Z,100024.91
2022-09-09T09:05:03.412Z,100021.59
2022-09-09T09:08:02.041Z,100022.44
2022-09-09T09:10:51.997Z,100021.22
2022-09-09T09:13:44.151Z,100029.84
2022-09-09T09:16:37.496Z,100023.66
2022-09-09T09:19:27.265Z,100026.94
2022-09-09T09:22:21.043Z,100041.34
2022-09-09T09:25:18.035Z,100035.19
2022-09-09T09:28:13.474Z,100047.34
2022-09-09T09:31:06.820Z,100047.09
2022-09-09T09:33:56.610Z,100052.91
2022-09-09T09:36:47.354Z,100047.56
2022-09-09T09:42:54.402Z,100042.19
2022-09-09T09:45:55.189Z,100051.28
2022-09-09T09:48:59.250Z,100043.66
2022-09-09T09:51:48.033Z,100045.69
2022-09-09T09:54:40.155Z,100043.66
2022-09-09T09:57:30.170Z,100036.00
2022-09-09T10:00:21.961Z,100031.03
2022-09-09T10:03:22.964Z,100023.59
2022-09-09T10:06:11.507Z,100026.91
2022-09-09T10:09:08.696Z,100023.78
2022-09-09T10:12:04.762Z,100020.66
2022-09-09T10:15:01.483Z,100018.13
2022-09-09T10:17:57.545Z,100018.03
2022-09-09T10:20:55.237Z,100026.63
2022-09-09T10:24:00.518Z,100016.91
2022-09-09T10:26:54.888Z,100013.38
2022-09-09T10:29:53.862Z,100018.28
2022-09-09T10:32:45.262Z,100022.78
2022-09-09T10:35:37.818Z,100012.78
2022-09-09T10:38:31.774Z,100007.88
2022-09-09T10:41:22.453Z,100009.50
2022-09-09T10:44:21.693Z,100012.78
2022-09-09T10:47:28.329Z,100004.09
2022-09-09T10:50:59.906Z,99992.13
2022-09-09T10:53:51.699Z,99999.72
2022-09-09T10:56:40.837Z,99992.50
2022-09-09T10:59:31.963Z,99986.91
2022-09-09T11:02:24.876Z,99985.44
2022-09-09T11:05:17.856Z,99979.69
2022-09-09T11:08:09.646Z,99977.38
2022-09-09T11:11:04.849Z,99984.50
2022-09-09T11:13:58.085Z,99984.97
2022-09-09T11:16:51.283Z,99977.06
2022-09-09T11:19:42.044Z,99980.06
2022-09-09T11:22:34.740Z,99973.56
2022-09-09T11:25:27.444Z,99980.63
2022-09-09T11:28:32.193Z,99983.69
2022-09-09T11:31:34.005Z,99979.78
2022-09-09T11:34:34.436Z,99977.50
2022-09-09T11:37:48.071Z,99979.38
2022-09-09T11:40:36.543Z,99976.53
2022-09-09T11:43:30.518Z,99980.28
2022-09-09T11:46:20.716Z,99970.81
2022-09-09T11:49:24.252Z,99980.28
2022-09-09T11:52:23.721Z,99970.81
2022-09-09T11:55:13.851Z,99963.81
2022-09-09T11:58:02.997Z,99963.22
2022-09-09T12:00:53.303Z,99960.09
2022-09-09T12:03:44.670Z,99955.47
2022-09-09T12:06:34.392Z,99961.59
2022-09-09T12:09:28.190Z,99953.72
2022-09-09T12:12:28.730Z,99956.81
2022-09-09T12:15:28.982Z,99944.31
2022-09-09T12:18:24.641Z,99938.06
2022-09-09T12:21:20.032Z,99934.00
2022-09-09T12:24:11.521Z,99936.44
2022-09-09T12:27:08.709Z,99947.16
2022-09-09T12:30:01.729Z,99947.16
2022-09-09T12:32:50.570Z,99934.00
2022-09-09T12:35:40.558Z,99941.84
2022-09-09T12:38:35.013Z,99930.91
2022-09-09T12:41:24.835Z,99931.53
2022-09-09T12:44:13.242Z,99926.75
2022-09-09T12:47:03.889Z,99923.59
2022-09-09T12:49:52.900Z,99923.59
2022-09-09T12:52:42.674Z,99926.66
2022-09-09T12:55:34.591Z,99925.25
2022-09-09T12:58:23.357Z,99923.88
2022-09-09T13:01:23.796Z,99915.63
2022-09-09T13:04:23.036Z,99913.75
2022-09-09T13:07:12.595Z,99912.38
2022-09-09T13:10:02.357Z,99907.81
2022-09-09T13:12:51.031Z,99898.72
2022-09-09T13:15:39.507Z,99884.25
2022-09-09T13:18:30.175Z,99883.59
2022-09-09T13:21:18.808Z,99881.84
2022-09-09T13:24:08.587Z,99890.47
2022-09-09T13:26:59.519Z,99888.63
2022-09-09T13:29:55.927Z,99883.25
2022-09-09T13:32:50.290Z,99883.25
2022-09-09T13:35:48.556Z,99879.75
2022-09-09T13:38:39.156Z,99882.91
2022-09-09T13:41:33.638Z,99886.63
2022-09-09T13:44:25.807Z,99894.22
2022-09-09T13:47:21.462Z,99892.09
2022-09-09T13:50:21.875Z,99893.53
2022-09-09T13:53:10.310Z,99888.41
2022-09-09T13:55:59.059Z,99888.63
2022-09-09T13:58:47.443Z,99886.16
2022-09-09T14:01:39.681Z,99894.78
2022-09-09T14:04:28.105Z,99904.50
2022-09-09T14:07:18.217Z,99886.16
2022-09-09T14:10:07.453Z,99886.63
2022-09-09T14:12:55.842Z,99885.47
2022-09-09T14:15:44.463Z,99883.38
2022-09-09T14:18:35.331Z,99890.00
2022-09-09T14:21:23.874Z,99888.34
2022-09-09T14:24:13.333Z,99872.06
2022-09-09T14:27:01.774Z,99867.28
2022-09-09T14:29:57.421Z,99869.38
2022-09-09T14:32:46.009Z,99865.84
2022-09-09T14:35:36.341Z,99866.69
2022-09-09T14:38:27.917Z,99862.97
2022-09-09T14:41:18.701Z,99859.81
2022-09-09T14:44:07.115Z,99856.91
2022-09-09T14:46:55.553Z,99851.88
2022-09-09T14:49:46.572Z,99846.31
2022-09-09T14:52:37.795Z,99853.09
2022-09-09T14:55:26.260Z,99848.09
2022-09-09T14:58:15.471Z,99848.31
2022-09-09T15:01:07.789Z,99844.00
2022-09-09T15:03:58.888Z,99844.34
2022-09-09T15:06:49.180Z,99858.72
2022-09-09T15:09:39.153Z,99859.75
2022-09-09T15:12:29.308Z,99860.81
2022-09-09T15:15:19.021Z,99855.66
2022-09-09T15:18:07.466Z,99844.25
2022-09-09T15:20:55.899Z,99845.50
2022-09-09T15:23:45.184Z,99851.72
2022-09-09T15:26:34.902Z,99852.75
2022-09-09T15:29:23.346Z,99851.72
2022-09-09T15:32:12.825Z,99849.47
2022-09-09T15:35:02.455Z,99855.88
2022-09-09T15:37:50.852Z,99860.81
2022-09-09T15:40:39.303Z,99859.38
2022-09-09T15:43:29.050Z,99869.88
2022-09-09T15:46:33.190Z,99866.84
2022-09-09T15:49:23.682Z,99867.66
2022-09-09T15:52:13.354Z,99868.22
2022-09-09T15:55:01.947Z,99857.97
2022-09-09T15:57:50.399Z,99873.59
2022-09-09T16:00:40.441Z,99861.94
2022-09-09T16:03:28.887Z,99863.81
2022-09-09T16:06:17.597Z,99858.09
2022-09-09T16:09:08.013Z,99857.25
2022-09-09T16:11:59.931Z,99846.31
2022-09-09T16:14:48.542Z,99851.19
2022-09-09T16:17:39.146Z,99850.25
2022-09-09T16:20:27.577Z,99866.34
2022-09-09T16:23:16.061Z,99867.38
2022-09-09T16:26:05.912Z,99870.06
2022-09-09T16:28:55.123Z,99867.38
2022-09-09T16:31:44.069Z,99869.63
2022-09-09T16:34:34.658Z,99865.53
2022-09-09T16:37:23.210Z,99872.75
2022-09-09T16:40:11.870Z,99867.97
2022-09-09T16:43:00.352Z,99872.75
2022-09-09T16:45:49.073Z,99882.09
2022-09-09T16:48:37.824Z,99890.94
2022-09-09T16:51:31.694Z,99894.88
2022-09-09T16:54:20.816Z,99897.34
2022-09-09T16:57:09.466Z,99894.66
2022-09-09T17:00:00.287Z,99896.56
2022-09-09T17:02:48.792Z,99897.81
2022-09-09T17:05:42.284Z,99897.34
2022-09-09T17:08:34.370Z,99896.19
2022-09-09T17:11:24.272Z,99901.09
2022-09-09T17:14:15.999Z,99904.44
2022-09-09T17:17:19.317Z,99899.44
2022-09-09T17:20:15.709Z,99895.84
2022-09-09T17:23:04.161Z,99903.88
2022-09-09T17:26:00.945Z,99901.91
2022-09-09T17:28:49.512Z,99911.34
2022-09-09T17:31:37.938Z,99904.34
2022-09-09T17:34:26.481Z,99916.72
2022-09-09T17:37:14.877Z,99917.75
2022-09-09T17:40:03.891Z,99913.44
2022-09-09T17:42:53.712Z,99915.06
2022-09-09T17:45:42.119Z,99919.38
2022-09-09T17:48:32.628Z,99928.47
2022-09-09T17:51:25.297Z,99926.38
2022-09-09T17:54:15.593Z,99938.16
2022-09-09T17:57:04.119Z,99943.78
2022-09-09T17:59:53.970Z,99941.09
2022-09-09T18:02:44.894Z,99946.66
2022-09-09T18:05:33.317Z,99961.72
2022-09-09T18:08:24.137Z,99962.53
2022-09-09T18:11:12.497Z,99971.38
2022-09-09T18:14:04.281Z,99976.16
2022-09-09T18:16:54.759Z,99983.16
2022-09-09T18:19:43.214Z,99975.13
2022-09-09T18:22:31.776Z,99974.06
2022-09-09T18:25:20.193Z,99977.34
2022-09-09T18:28:09.045Z,99978.63
2022-09-09T18:30:57.724Z,99972.44
2022-09-09T18:33:49.076Z,99971.84
2022-09-09T18:36:39.430Z,99969.97
2022-09-09T18:39:29.895Z,99963.34
2022-09-09T18:42:18.398Z,99964.97
2022-09-09T18:45:07.715Z,99962.53
2022-09-09T18:47:56.769Z,99978.63
2022-09-09T18:50:46.567Z,99981.91
2022-09-09T18:53:35.696Z,99984.34
2022-09-09T18:56:24.688Z,99983.53
2022-09-09T18:59:14.314Z,99991.78
2022-09-09T19:02:02.698Z,99991.00
2022-09-09T19:04:51.208Z,99982.38
2022-09-09T19:07:41.331Z,99986.88
2022-09-09T19:10:31.472Z,99986.88
2022-09-09T19:13:20.076Z,99993.69
2022-09-09T19:16:10.227Z,99997.16
2022-09-09T19:19:01.098Z,99995.53
2022-09-09T19:21:50.017Z,99997.16
2022-09-09T19:24:40.628Z,99995.53
2022-09-09T19:27:29.086Z,99998.19
2022-09-09T19:30:17.691Z,99998.19
2022-09-09T19:33:06.730Z,100005.44
2022-09-09T19:36:02.018Z,100001.72
2022-09-09T19:38:50.552Z,100007.88
2022-09-09T19:41:40.323Z,100005.44
2022-09-09T19:44:28.864Z,100010.81
2022-09-09T19:47:17.826Z,100006.25
2022-09-09T19:50:08.759Z,100011.59
2022-09-09T19:52:57.977Z,100009.97
2022-09-09T19:55:50.795Z,100002.97
2022-09-09T19:58:41.493Z,100007.88
2022-09-09T20:01:37.972Z,100009.53
2022-09-09T20:04:30.733Z,100008.25
2022-09-09T20:07:19.783Z,100006.84
2022-09-09T20:10:09.918Z,100003.34
2022-09-09T20:13:00.386Z,100007.88
2022-09-09T20:15:58.117Z,100016.97
2022-09-09T20:18:48.615Z,100016.97
2022-09-09T20:21:38.306Z,100026.06
2022-09-09T20:24:26.795Z,100030.38
2022-09-09T20:27:15.228Z,100025.59
2022-09-09T20:30:03.689Z,100031.44
2022-09-09T20:32:53.516Z,100034.69
2022-09-09T20:35:42.058Z,100028.53
2022-09-09T20:38:30.518Z,100033.06
2022-09-09T20:41:21.647Z,100033.06
2022-09-09T20:44:14.156Z,100040.53
2022-09-09T20:47:07.074Z,100035.75
2022-09-09T20:49:56.908Z,100043.00
2022-09-09T20:52:45.357Z,100040.06
2022-09-09T20:55:34.282Z,100040.06
2022-09-09T20:58:22.686Z,100051.63
2022-09-09T21:01:17.306Z,100048.09
2022-09-09T21:04:06.076Z,100052.41
2022-09-09T21:06:55.799Z,100050.78
2022-09-09T21:09:44.287Z,100045.66
2022-09-09T21:12:32.703Z,100044.38
2022-09-09T21:15:21.158Z,100056.75
2022-09-09T21:18:09.640Z,100052.41
2022-09-09T21:20:58.602Z,100049.16
2022-09-09T21:23:48.854Z,100045.44
2022-09-09T21:26:37.240Z,100049.16
2022-09-09T21:29:25.639Z,100048.94
2022-09-09T21:32:14.035Z,100043.78
2022-09-09T21:35:02.424Z,100048.09
2022-09-09T21:37:50.808Z,100045.44
2022-09-09T21:40:42.085Z,100050.78
2022-09-09T21:43:30.471Z,100048.09
2022-09-09T21:46:19.156Z,100051.84
2022-09-09T21:49:09.641Z,100047.53
2022-09-09T21:51:58.688Z,100049.16
2022-09-09T21:54:47.123Z,100050.00
2022-09-09T21:57:37.607Z,100046.25
2022-09-09T22:00:26.280Z,100047.06
2022-09-09T22:03:15.998Z,100039.59
2022-09-09T22:06:06.484Z,100035.53
2022-09-09T22:09:00.174Z,100038.44
2022-09-09T22:11:48.561Z,100032.59
2022-09-09T22:14:38.643Z,100035.06
2022-09-09T22:17:27.344Z,100031.81
2022-09-09T22:20:16.026Z,100034.69
2022-09-09T22:23:06.989Z,100028.28
2022-09-09T22:25:56.980Z,100027.25
2022-09-09T22:28:45.371Z,100033.66
2022-09-09T22:31:36.709Z,100026.66
2022-09-09T22:34:28.257Z,100023.50
2022-09-09T22:37:16.621Z,100021.06
2022-09-09T22:40:06.000Z,100033.66
2022-09-09T22:42:54.503Z,100027.25
2022-09-09T22:45:44.172Z,100021.28
2022-09-09T22:48:37.890Z,100018.59
2022-09-09T22:51:26.332Z,100020.25
2022-09-09T22:54:15.332Z,100018.59
2022-09-09T22:57:07.481Z,100008.94
2022-09-09T22:59:56.136Z,100008.94
2022-09-09T23:02:44.555Z,100007.28
2022-09-09T23:05:35.339Z,100005.19
2022-09-09T23:08:24.876Z,99999.84
2022-09-09T23:11:13.691Z,100006.25
2022-09-09T23:14:03.965Z,99997.16
2022-09-09T23:16:52.579Z,99999.84
2022-09-09T23:19:41.552Z,100001.47
2022-09-09T23:22:34.235Z,99995.31
2022-09-09T23:25:22.818Z,100002.97
2022-09-09T23:28:11.341Z,100002.53
2022-09-09T23:30:59.906Z,100006.84
2022-09-09T23:33:49.498Z,100000.88
2022-09-09T23:36:39.187Z,100000.88
2022-09-09T23:39:29.184Z,100004.16
2022-09-09T23:42:17.757Z,100009.53
2022-09-09T23:45:07.638Z,100005.19
2022-09-09T23:47:56.003Z,100007.88
2022-09-09T23:50:44.442Z,100010.81
2022-09-09T23:53:32.981Z,100012.78
2022-09-09T23:56:26.224Z,100017.56
2022-09-09T23:59:14.669Z,100016.19
